Time;durP1;ratioP1;P1;durP2;ratioP2;P2;SDS_P1;SDS_P2;PMS_P1;PMS_P2;Temp;Humidity;BMP_temperature;BMP_pressure;BME280_temperature;BME280_humidity;BME280_pressure;Samples;Min_cycle;Max_cycle;Signal;HPM_P1;HPM_P2
2022/08/18 00:02:01;;;;;;;;;1.33;0.67;;;;;18.39;74.70;100275.88;4980278;28;45440;-76
2022/08/18 00:04:27;;;;;;;;;0.00;0.00;;;;;18.54;74.57;100302.19;4980340;28;45512;-73
2022/08/18 00:06:52;;;;;;;;;0.00;0.00;;;;;18.66;75.05;100322.41;4980616;28;45412;-74
2022/08/18 00:09:18;;;;;;;;;0.67;0.67;;;;;18.28;74.14;100242.44;4980100;28;46618;-73
2022/08/18 00:11:44;;;;;;;;;0.00;0.00;;;;;18.59;74.24;100292.47;4979920;28;45474;-73
2022/08/18 00:14:13;;;;;;;;;0.00;0.00;;;;;18.58;74.02;100289.81;4980164;28;45475;-73
2022/08/18 00:16:39;;;;;;;;;0.00;0.00;;;;;18.11;73.67;100217.88;4978998;28;45448;-74
2022/08/18 00:19:05;;;;;;;;;0.00;0.00;;;;;18.31;73.51;100248.59;4962259;28;46768;-74
2022/08/18 00:21:32;;;;;;;;;0.67;0.00;;;;;18.62;73.62;100325.94;4980153;28;45466;-74
2022/08/18 00:23:57;;;;;;;;;0.67;0.00;;;;;18.23;73.48;100238.06;4980059;28;45397;-75
2022/08/18 00:26:23;;;;;;;;;0.33;0.00;;;;;18.29;73.19;100241.53;4980409;28;45564;-77
2022/08/18 00:28:48;;;;;;;;;0.00;0.00;;;;;18.66;73.01;100295.94;4979897;28;45623;-73
2022/08/18 00:31:14;;;;;;;;;0.00;0.00;;;;;18.71;73.85;100299.44;4979862;28;45463;-77
2022/08/18 00:33:39;;;;;;;;;0.00;0.00;;;;;18.65;73.75;100281.84;4979915;28;45393;-77
2022/08/18 00:36:05;;;;;;;;;1.00;0.00;;;;;18.22;73.65;100218.69;4978708;28;45562;-77
2022/08/18 00:38:30;;;;;;;;;0.00;0.00;;;;;18.68;73.87;100281.84;4980064;28;45582;-73
2022/08/18 00:40:56;;;;;;;;;0.00;0.00;;;;;18.65;73.69;100273.03;4979948;28;45313;-77
2022/08/18 00:43:35;;;;;;;;;0.00;0.00;;;;;18.77;73.60;100293.22;4962259;28;45558;-78
2022/08/18 00:46:04;;;;;;;;;0.00;0.00;;;;;18.59;73.94;100279.25;4980439;28;45305;-75
2022/08/18 00:48:30;;;;;;;;;0.00;0.00;;;;;18.61;74.41;100281.88;4978384;28;47867;-76
2022/08/18 00:51:00;;;;;;;;;0.00;0.00;;;;;18.78;74.19;100311.75;4961142;28;45402;-77
2022/08/18 00:53:38;;;;;;;;;0.00;0.00;;;;;18.80;74.07;100310.00;4979726;28;45448;-76
2022/08/18 00:56:29;;;;;;;;;0.67;0.00;;;;;18.74;74.60;100302.09;4979980;28;45798;-75
2022/08/18 00:59:04;;;;;;;;;0.00;0.00;;;;;18.67;74.67;100298.56;4979079;28;45519;-77
2022/08/18 01:01:31;;;;;;;;;0.67;0.00;;;;;18.76;74.52;100307.34;4979371;28;45410;-73
2022/08/18 01:04:05;;;;;;;;;1.00;0.00;;;;;18.76;74.95;100302.03;4979435;28;45552;-75
2022/08/18 01:06:40;;;;;;;;;0.67;0.33;;;;;18.44;75.12;100255.53;4979819;28;46223;-73
2022/08/18 01:09:07;;;;;;;;;0.33;0.33;;;;;18.62;75.63;100288.91;4961940;28;48024;-73
2022/08/18 01:11:35;;;;;;;;;0.33;0.33;;;;;18.55;75.69;100280.16;4979384;28;45508;-77
2022/08/18 01:14:01;;;;;;;;;1.67;0.67;;;;;18.59;76.14;100281.03;4978028;28;45529;-74
2022/08/18 01:22:18;;;;;;;;;0.33;0.33;;;;;18.61;76.33;100290.69;4966583;28;45559;-76
2022/08/18 01:27:30;;;;;;;;;1.00;0.33;;;;;18.71;76.06;100304.72;4979199;28;45512;-76
2022/08/18 01:30:01;;;;;;;;;0.67;0.67;;;;;18.61;75.96;100284.53;4961158;28;46642;-75
2022/08/18 01:32:26;;;;;;;;;0.00;0.00;;;;;18.51;75.97;100272.25;4978490;28;45464;-75
2022/08/18 01:34:53;;;;;;;;;0.00;0.00;;;;;18.46;76.62;100272.28;4977637;28;45476;-77
2022/08/18 01:37:22;;;;;;;;;1.33;0.67;;;;;17.77;76.40;100153.75;4978969;28;45499;-75
2022/08/18 01:39:49;;;;;;;;;0.67;0.67;;;;;17.30;77.66;100058.91;4978680;28;46598;-76
2022/08/18 01:42:16;;;;;;;;;0.67;0.00;;;;;17.29;77.04;100051.00;4978924;28;45456;-77
2022/08/18 01:44:43;;;;;;;;;1.33;1.33;;;;;17.43;76.58;100058.84;4978821;28;45362;-76
2022/08/18 01:47:10;;;;;;;;;1.67;1.67;;;;;18.17;76.48;100157.03;4979174;28;45522;-77
2022/08/18 01:49:37;;;;;;;;;2.67;2.33;;;;;18.63;77.93;100245.72;4978905;28;46086;-76
2022/08/18 01:52:05;;;;;;;;;3.00;2.00;;;;;18.53;77.98;100233.44;4961155;28;45497;-76
2022/08/18 01:54:31;;;;;;;;;2.00;1.67;;;;;18.79;78.40;100275.56;4978654;28;45432;-76
2022/08/18 01:56:58;;;;;;;;;2.67;2.00;;;;;18.81;77.50;100276.47;4977273;28;45530;-76
2022/08/18 01:59:24;;;;;;;;;2.00;2.00;;;;;18.66;77.16;100256.25;4978208;28;45861;-75
2022/08/18 02:01:54;;;;;;;;;1.67;1.00;;;;;18.76;76.93;100265.00;4977093;28;45462;-75
2022/08/18 02:04:27;;;;;;;;;1.33;1.33;;;;;18.77;76.50;100261.47;4978462;28;45503;-75
2022/08/18 02:06:54;;;;;;;;;1.67;1.00;;;;;18.72;76.73;100295.03;4978641;28;45560;-75
2022/08/18 02:09:21;;;;;;;;;2.00;2.00;;;;;18.65;76.49;100254.50;4960523;28;46569;-76
2022/08/18 02:11:47;;;;;;;;;2.67;2.00;;;;;18.64;76.45;100244.81;4976741;28;45328;-75
2022/08/18 02:14:12;;;;;;;;;1.33;1.33;;;;;18.59;76.54;100228.09;4960834;28;45387;-76
2022/08/18 02:16:38;;;;;;;;;4.00;2.33;;;;;18.76;76.68;100260.59;4978871;28;45998;-75
2022/08/18 02:19:03;;;;;;;;;1.33;1.00;;;;;18.68;76.15;100254.47;4976898;28;47066;-74
2022/08/18 02:21:29;;;;;;;;;0.67;0.00;;;;;18.77;76.36;100254.41;4960574;28;45511;-75
2022/08/18 02:23:54;;;;;;;;;1.67;1.67;;;;;18.79;76.19;100255.31;4978414;28;45411;-75
2022/08/18 02:26:22;;;;;;;;;2.67;2.00;;;;;18.77;76.40;100249.13;4978546;28;45517;-77
2022/08/18 02:28:48;;;;;;;;;1.33;1.00;;;;;18.71;76.84;100229.78;4977929;28;45734;-75
2022/08/18 02:31:17;;;;;;;;;3.33;1.67;;;;;18.72;77.16;100239.44;4977891;28;45464;-77
2022/08/18 02:33:43;;;;;;;;;2.00;1.67;;;;;18.84;76.25;100248.22;4978171;28;45380;-77
2022/08/18 02:36:10;;;;;;;;;1.33;1.00;;;;;18.82;75.91;100249.09;4978710;28;45354;-77
2022/08/18 02:38:37;;;;;;;;;1.67;1.67;;;;;18.85;75.94;100260.53;4960553;28;47780;-77
2022/08/18 02:41:05;;;;;;;;;3.33;2.67;;;;;18.71;76.04;100237.72;4960438;28;45540;-76
2022/08/18 02:43:31;;;;;;;;;2.00;1.00;;;;;18.82;75.90;100260.59;4960340;28;45422;-77
2022/08/18 02:45:57;;;;;;;;;2.00;1.00;;;;;18.76;76.13;100236.78;4960715;28;45479;-75
2022/08/18 02:48:30;;;;;;;;;1.67;1.33;;;;;18.71;76.52;100241.22;4960161;28;47594;-75
2022/08/18 02:51:11;;;;;;;;;3.67;2.00;;;;;18.74;76.66;100235.03;4977933;28;45395;-75
2022/08/18 02:53:38;;;;;;;;;5.00;3.00;;;;;18.86;76.39;100238.50;4977866;28;46076;-74
2022/08/18 02:56:22;;;;;;;;;2.00;2.00;;;;;18.88;76.50;100239.34;4960571;28;45530;-75
2022/08/18 02:58:52;;;;;;;;;3.33;2.33;;;;;18.87;76.33;100242.00;4977563;28;46558;-73
2022/08/18 03:01:21;;;;;;;;;3.67;2.67;;;;;18.83;76.43;100212.03;4977643;28;45444;-74
2022/08/18 03:03:48;;;;;;;;;3.00;2.33;;;;;18.90;76.15;100241.09;4977656;28;45552;-74
2022/08/18 03:06:16;;;;;;;;;3.00;3.00;;;;;18.84;76.43;100237.63;4977821;28;45439;-75
2022/08/18 03:08:47;;;;;;;;;4.67;3.00;;;;;18.92;76.15;100247.25;4977706;28;46106;-74
2022/08/18 03:11:18;;;;;;;;;3.00;2.00;;;;;18.80;76.60;100227.06;4976356;28;45625;-77
2022/08/18 03:13:45;;;;;;;;;4.33;2.67;;;;;18.82;76.92;100243.81;4961197;28;45184;-77
2022/08/18 03:16:12;;;;;;;;;3.33;2.33;;;;;18.90;76.63;100263.16;4980364;28;45376;-75
2022/08/18 03:18:40;;;;;;;;;3.67;3.33;;;;;18.72;77.12;100237.72;4980544;28;46362;-74
2022/08/18 03:21:12;;;;;;;;;4.00;3.00;;;;;18.82;77.04;100259.69;4980878;28;45411;-75
2022/08/18 03:23:41;;;;;;;;;5.00;2.67;;;;;18.86;76.94;100257.03;4980721;28;45403;-75
2022/08/18 03:26:11;;;;;;;;;4.67;3.33;;;;;18.83;77.21;100257.03;4981207;28;45473;-75
2022/08/18 03:28:37;;;;;;;;;6.00;3.33;;;;;18.81;77.03;100261.47;4963187;28;47795;-74
2022/08/18 03:31:09;;;;;;;;;4.00;3.00;;;;;18.73;77.11;100242.09;4963307;28;45467;-75
2022/08/18 03:33:35;;;;;;;;;2.00;2.00;;;;;18.69;77.72;100241.22;4980998;28;45288;-76
2022/08/18 03:36:13;;;;;;;;;4.00;3.67;;;;;18.68;77.75;100231.56;4963435;28;45605;-76
2022/08/18 03:38:41;;;;;;;;;6.33;3.00;;;;;18.95;77.06;100261.34;4980426;28;45273;-76
2022/08/18 03:41:08;;;;;;;;;3.00;2.00;;;;;18.87;76.92;100253.47;4962932;28;45818;-76
2022/08/18 03:43:34;;;;;;;;;2.00;2.00;;;;;18.75;76.72;100237.66;4980532;28;45572;-75
2022/08/18 03:46:03;;;;;;;;;3.00;2.00;;;;;18.92;76.20;100265.78;4980764;28;45305;-75
2022/08/18 03:48:29;;;;;;;;;3.00;2.00;;;;;18.90;76.74;100260.53;4979233;28;48120;-75
2022/08/18 03:50:54;;;;;;;;;2.00;1.67;;;;;18.82;76.77;100257.03;4980404;28;45483;-75
2022/08/18 03:53:20;;;;;;;;;2.00;1.00;;;;;18.66;76.90;100235.09;4962905;28;45702;-76
2022/08/18 03:55:46;;;;;;;;;3.00;2.00;;;;;18.71;77.03;100240.38;4979544;28;45558;-75
2022/08/18 03:58:12;;;;;;;;;3.33;3.00;;;;;18.70;76.97;100234.16;4963137;28;47635;-75
2022/08/18 04:00:38;;;;;;;;;3.00;2.33;;;;;18.73;77.00;100231.50;4962928;28;45351;-77
2022/08/18 04:03:04;;;;;;;;;3.00;3.00;;;;;18.85;76.91;100273.78;4980460;28;45593;-76
2022/08/18 04:05:29;;;;;;;;;4.00;3.00;;;;;18.81;76.74;100264.09;4980446;28;45487;-74
2022/08/18 04:07:56;;;;;;;;;3.33;2.00;;;;;18.72;76.96;100240.34;4979872;28;45881;-75
2022/08/18 04:10:23;;;;;;;;;4.67;4.00;;;;;18.79;76.79;100246.47;4980288;28;45312;-75
2022/08/18 04:12:49;;;;;;;;;4.00;4.00;;;;;18.84;77.16;100255.25;4962731;28;45259;-76
2022/08/18 04:15:15;;;;;;;;;4.00;3.00;;;;;18.88;76.77;100257.88;4963132;28;45387;-76
2022/08/18 04:17:40;;;;;;;;;1.67;1.00;;;;;18.88;76.59;100263.19;4980072;28;45609;-73
2022/08/18 04:20:06;;;;;;;;;2.00;2.00;;;;;18.85;76.79;100260.53;4979812;28;45234;-74
2022/08/18 04:22:35;;;;;;;;;3.00;1.00;;;;;18.93;76.24;100264.91;4980345;28;45798;-72
2022/08/18 04:25:00;;;;;;;;;2.67;1.00;;;;;18.80;76.20;100262.38;4979139;28;45539;-77
2022/08/18 04:27:27;;;;;;;;;1.00;0.00;;;;;18.68;76.06;100257.13;4979693;28;45502;-78
2022/08/18 04:29:55;;;;;;;;;0.00;0.00;;;;;18.79;75.80;100275.56;4978485;28;45512;-75
2022/08/18 04:32:22;;;;;;;;;0.00;0.00;;;;;18.76;75.32;100271.19;4962313;28;45308;-77
2022/08/18 04:34:48;;;;;;;;;2.00;0.67;;;;;18.71;75.35;100272.13;4980467;28;45602;-76
2022/08/18 04:37:14;;;;;;;;;1.00;0.00;;;;;18.83;75.28;100301.16;4980180;28;46549;-75
2022/08/18 04:39:40;;;;;;;;;0.67;0.67;;;;;18.71;75.74;100288.00;4979637;28;45471;-76
2022/08/18 04:42:06;;;;;;;;;1.00;0.67;;;;;18.70;76.35;100292.38;4979982;28;45464;-76
2022/08/18 04:44:33;;;;;;;;;2.00;1.00;;;;;18.69;76.10;100302.09;4962326;28;45354;-78
2022/08/18 04:46:59;;;;;;;;;1.67;1.67;;;;;18.55;76.37;100281.94;4979423;28;45368;-78
2022/08/18 04:49:25;;;;;;;;;0.67;0.67;;;;;18.68;75.66;100294.16;4961963;28;45596;-78
2022/08/18 04:54:39;;;;;;;;;1.67;1.00;;;;;18.75;76.12;100311.75;4979473;28;45364;-79
2022/08/18 04:57:08;;;;;;;;;2.00;1.33;;;;;18.72;76.10;100313.53;4961803;28;47150;-79
2022/08/18 04:59:34;;;;;;;;;2.33;1.00;;;;;18.60;75.95;100311.84;4961843;28;45397;-78
2022/08/18 05:02:04;;;;;;;;;1.00;1.00;;;;;18.53;75.53;100312.81;4979456;28;45523;-77
2022/08/18 05:04:30;;;;;;;;;0.00;0.00;;;;;18.40;75.64;100294.38;4962050;28;45468;-76
2022/08/18 05:06:56;;;;;;;;;0.67;0.67;;;;;18.39;75.08;100284.66;4979310;28;46213;-75
2022/08/18 05:09:22;;;;;;;;;1.67;1.00;;;;;18.20;75.16;100265.38;4961739;28;45669;-76
2022/08/18 05:11:47;;;;;;;;;2.33;1.00;;;;;18.21;75.46;100290.06;4979548;28;45358;-76
2022/08/18 05:14:13;;;;;;;;;1.33;0.67;;;;;18.13;75.77;100276.88;4961912;28;45628;-73
2022/08/18 05:16:39;;;;;;;;;0.67;0.67;;;;;18.42;75.88;100315.50;4979327;28;46661;-76
2022/08/18 05:19:07;;;;;;;;;0.67;0.67;;;;;18.51;75.17;100335.75;4960380;28;45529;-73
2022/08/18 05:21:35;;;;;;;;;3.33;1.33;;;;;18.45;75.33;100321.66;4978486;28;45633;-75
2022/08/18 05:24:02;;;;;;;;;2.33;1.67;;;;;18.45;75.46;100323.44;4961016;28;45493;-73
2022/08/18 05:26:28;;;;;;;;;1.67;1.67;;;;;18.45;75.50;100319.00;4960732;28;45420;-76
2022/08/18 05:28:54;;;;;;;;;0.67;0.67;;;;;18.52;75.94;100345.41;4961241;28;45555;-73
2022/08/18 05:31:23;;;;;;;;;1.67;1.00;;;;;18.48;75.68;100337.53;4961945;28;45436;-73
2022/08/18 05:33:50;;;;;;;;;3.00;1.67;;;;;18.57;75.42;100339.22;4979792;28;45288;-73
2022/08/18 05:36:42;;;;;;;;;5.00;2.00;;;;;18.45;75.16;100320.78;4978696;28;45515;-73
2022/08/18 05:39:16;;;;;;;;;2.00;1.00;;;;;18.58;75.13;100350.66;4961164;28;45628;-72
2022/08/18 05:41:52;;;;;;;;;4.00;1.33;;;;;18.59;74.97;100358.59;4978614;28;45220;-74
2022/08/18 05:44:24;;;;;;;;;2.33;1.67;;;;;18.56;75.83;100369.22;4979384;28;45379;-76
2022/08/18 05:46:54;;;;;;;;;4.00;2.67;;;;;18.58;75.29;100382.41;4977602;28;45664;-72
2022/08/18 05:49:21;;;;;;;;;1.67;1.33;;;;;18.43;75.17;100362.22;4979015;28;45514;-75
2022/08/18 05:52:05;;;;;;;;;3.00;3.00;;;;;18.46;74.34;100356.91;4978798;28;45230;-75
2022/08/18 05:57:26;;;;;;;;;4.00;2.00;;;;;18.37;74.53;100371.06;4978719;28;45941;-72
2022/08/18 05:59:53;;;;;;;;;2.67;2.00;;;;;18.49;74.13;100396.59;4978728;28;45409;-76
2022/08/18 06:02:36;;;;;;;;;2.33;2.00;;;;;18.55;73.28;100393.03;4961258;28;45369;-76
2022/08/18 06:05:25;;;;;;;;;1.67;1.67;;;;;18.48;73.25;100378.94;4961157;28;45626;-74
2022/08/18 06:08:09;;;;;;;;;2.33;1.67;;;;;18.53;73.16;100389.53;4978793;28;46179;-73
2022/08/18 06:10:36;;;;;;;;;2.00;2.00;;;;;18.25;72.99;100366.72;4978472;28;45415;-73
2022/08/18 06:13:03;;;;;;;;;3.33;2.67;;;;;18.35;72.89;100386.06;4978391;28;45586;-73
2022/08/18 06:15:41;;;;;;;;;3.67;3.33;;;;;18.31;72.78;100376.41;4978200;28;45608;-73
2022/08/18 06:18:26;;;;;;;;;4.67;4.00;;;;;18.10;73.03;100364.13;4960193;28;47172;-73
2022/08/18 06:24:20;;;;;;;;;3.33;3.00;;;;;18.20;72.76;100402.84;5091180;27;45320;-70
2022/08/18 06:27:08;;;;;;;;;5.33;4.00;;;;;18.23;72.45;100402.00;5073989;28;45433;-71
2022/08/18 06:30:00;;;;;;;;;4.00;3.00;;;;;18.20;72.68;100408.16;5074007;28;45295;-71
2022/08/18 06:33:07;;;;;;;;;4.00;3.67;;;;;18.07;73.42;100404.69;5074173;28;45363;-71
2022/08/18 06:35:40;;;;;;;;;5.00;4.00;;;;;18.01;73.26;100402.06;5073603;28;45990;-70
2022/08/18 06:41:18;;;;;;;;;6.67;5.00;;;;;17.99;73.26;100395.91;5073703;28;45406;-71
2022/08/18 06:43:57;;;;;;;;;6.67;5.33;;;;;18.11;73.37;100416.13;5073770;28;45414;-71
2022/08/18 06:46:35;;;;;;;;;4.50;4.00;;;;;18.13;73.54;100424.06;5073711;28;45519;-70
2022/08/18 06:49:06;;;;;;;;;6.00;5.00;;;;;18.21;74.09;100438.13;5073559;28;45331;-71
2022/08/18 06:51:32;;;;;;;;;4.67;4.33;;;;;18.30;73.16;100424.84;5072945;27;45268;-71
2022/08/18 06:54:07;;;;;;;;;6.33;4.67;;;;;18.29;73.74;100423.13;5072958;27;45506;-71
2022/08/18 06:56:50;;;;;;;;;3.00;3.00;;;;;18.49;73.43;100420.38;5070311;28;45733;-71
2022/08/18 06:59:24;;;;;;;;;2.67;2.67;;;;;18.57;72.46;100420.34;5070105;28;45958;-71
2022/08/18 07:02:12;;;;;;;;;2.00;2.00;;;;;18.64;72.65;100425.63;5069095;28;45498;-69
2022/08/18 07:04:59;;;;;;;;;4.33;2.67;;;;;18.60;72.82;100422.97;5064107;28;45639;-68
2022/08/18 07:07:31;;;;;;;;;3.33;3.33;;;;;18.61;72.83;100419.44;5072701;27;45505;-69
2022/08/18 07:09:57;;;;;;;;;4.33;4.00;;;;;18.55;72.53;100415.06;5072133;28;45515;-73
2022/08/18 07:12:26;;;;;;;;;3.33;3.33;;;;;18.55;72.08;100428.28;5073076;27;45474;-73
2022/08/18 07:15:00;;;;;;;;;5.67;5.33;;;;;18.37;72.49;100416.03;5073044;27;45342;-69
2022/08/18 07:17:29;;;;;;;;;6.67;6.00;;;;;18.39;73.08;100424.84;5070977;28;45347;-69
2022/08/18 07:20:00;;;;;;;;;3.00;3.00;;;;;18.38;72.39;100422.19;5072508;27;45353;-70
2022/08/18 07:22:26;;;;;;;;;6.67;4.67;;;;;18.34;72.67;100420.44;5078941;27;45675;-71
2022/08/18 07:24:54;;;;;;;;;5.67;2.67;;;;;18.29;72.84;100417.81;5092959;27;45394;-69
2022/08/18 07:27:40;;;;;;;;;4.00;4.00;;;;;18.20;72.32;100418.72;5089601;27;46112;-70
2022/08/18 07:30:26;;;;;;;;;4.33;4.33;;;;;18.12;72.66;100435.50;5093313;27;45248;-70
2022/08/18 07:33:03;;;;;;;;;6.67;5.67;;;;;18.06;72.89;100431.09;5093034;27;45521;-70
2022/08/18 07:35:55;;;;;;;;;4.67;4.00;;;;;18.04;72.49;100433.75;5079169;28;45554;-76
2022/08/18 07:38:25;;;;;;;;;4.67;4.67;;;;;18.02;72.64;100429.34;5079510;28;45450;-75
2022/08/18 07:41:19;;;;;;;;;5.33;5.33;;;;;17.97;73.36;100432.03;5079465;28;45512;-76
2022/08/18 07:43:50;;;;;;;;;6.00;6.00;;;;;17.97;73.48;100458.44;5079370;28;45414;-74
2022/08/18 07:46:22;;;;;;;;;4.33;4.33;;;;;17.91;73.96;100452.31;5079694;28;45395;-74
2022/08/18 07:48:48;;;;;;;;;8.00;6.67;;;;;17.89;74.50;100441.72;5078950;28;46047;-73
2022/08/18 07:51:13;;;;;;;;;5.67;5.67;;;;;18.01;73.94;100462.84;5079206;28;45509;-77
2022/08/18 07:53:57;;;;;;;;;6.33;5.33;;;;;18.01;74.47;100459.34;5079588;28;45386;-76
2022/08/18 07:56:47;;;;;;;;;6.00;4.33;;;;;17.97;74.92;100471.66;5079542;27;45452;-70
2022/08/18 07:59:46;;;;;;;;;4.33;4.00;;;;;17.95;73.89;100454.94;5060903;27;48238;-77
2022/08/18 08:02:14;;;;;;;;;4.33;4.33;;;;;18.04;73.79;100459.31;5073551;27;45507;-77
2022/08/18 08:04:55;;;;;;;;;5.00;5.00;;;;;18.00;73.89;100460.19;5060764;28;45427;-73
2022/08/18 08:07:27;;;;;;;;;5.33;5.00;;;;;17.97;73.91;100465.50;5079182;28;45592;-72
2022/08/18 08:10:25;;;;;;;;;6.00;4.67;;;;;17.93;73.97;100456.69;5078554;28;45452;-76
2022/08/18 08:13:18;;;;;;;;;7.00;5.33;;;;;17.91;74.68;100465.53;5078811;28;45338;-76
2022/08/18 08:16:01;;;;;;;;;5.33;5.33;;;;;17.87;74.34;100469.94;5042438;28;45410;-74
2022/08/18 08:18:40;;;;;;;;;6.33;5.33;;;;;17.92;74.94;100469.91;5079493;28;45382;-77
2022/08/18 08:21:13;;;;;;;;;6.33;6.00;;;;;17.84;74.51;100448.78;5078618;28;45520;-73
2022/08/18 08:24:00;;;;;;;;;4.33;4.33;;;;;17.66;74.32;100410.88;5078225;27;45517;-76
2022/08/18 08:26:41;;;;;;;;;5.33;4.67;;;;;17.97;73.59;100473.44;5079182;27;45469;-77
2022/08/18 08:29:25;;;;;;;;;5.00;4.33;;;;;18.00;73.71;100469.00;5079307;28;45340;-80
2022/08/18 08:32:09;;;;;;;;;5.67;3.67;;;;;17.95;74.34;100457.56;5079572;27;46138;-81
2022/08/18 08:34:50;;;;;;;;;8.00;7.33;;;;;17.98;74.66;100473.41;5079721;27;45415;-78
2022/08/18 08:37:26;;;;;;;;;4.33;4.33;;;;;18.03;74.28;100469.00;5080226;28;45224;-87
2022/08/18 08:39:58;;;;;;;;;6.33;4.67;;;;;17.96;73.57;100424.09;5079460;28;45349;-80
2022/08/18 08:42:26;;;;;;;;;4.67;4.67;;;;;18.19;73.15;100448.72;5091895;28;45974;-73
2022/08/18 08:44:59;;;;;;;;;3.00;3.00;;;;;18.26;72.89;100434.59;5088510;27;44820;-77
2022/08/18 08:47:37;;;;;;;;;4.00;4.00;;;;;18.35;72.62;100432.78;5084518;28;45532;-74
2022/08/18 08:50:11;;;;;;;;;6.00;5.00;;;;;18.37;72.93;100450.41;5093106;27;45240;-74
2022/08/18 08:52:57;;;;;;;;;4.33;3.33;;;;;18.19;72.85;100431.97;5090158;28;45441;-77
2022/08/18 08:55:50;;;;;;;;;4.33;3.67;;;;;18.17;73.22;100445.19;5082321;27;45744;-80
2022/08/18 08:58:25;;;;;;;;;3.67;3.67;;;;;18.18;74.27;100465.44;5077914;28;45362;-79
2022/08/18 09:00:54;;;;;;;;;4.00;3.67;;;;;18.03;73.79;100466.38;5080195;27;45367;-73
2022/08/18 09:03:35;;;;;;;;;3.67;3.67;;;;;18.18;73.80;100476.00;5060709;28;45945;-79
2022/08/18 09:06:48;;;;;;;;;3.00;3.00;;;;;18.22;73.70;100480.44;5078085;28;45430;-77
2022/08/18 09:09:13;;;;;;;;;4.67;4.67;;;;;18.21;73.85;100493.66;5034395;28;45659;-78
2022/08/18 09:12:08;;;;;;;;;16.33;16.33;;;;;17.99;74.23;100448.75;5080643;28;45423;-77
2022/08/18 09:14:55;;;;;;;;;3.00;3.00;;;;;18.39;73.00;100483.03;5077579;27;46604;-73
2022/08/18 09:17:46;;;;;;;;;3.00;3.00;;;;;18.51;73.15;100476.81;5077134;28;45476;-83
2022/08/18 09:20:39;;;;;;;;;3.00;3.00;;;;;18.53;72.90;100480.31;5077549;28;45296;-83
2022/08/18 09:23:18;;;;;;;;;3.00;2.67;;;;;18.50;73.04;100496.19;5077837;28;45338;-83
2022/08/18 09:25:50;;;;;;;;;3.67;2.00;;;;;18.48;72.69;100490.94;5077287;28;45421;-76
2022/08/18 09:28:24;;;;;;;;;2.67;2.33;;;;;18.46;73.30;100505.94;5077261;27;45260;-73
2022/08/18 09:31:05;;;;;;;;;2.33;2.00;;;;;18.45;72.79;100498.00;5077221;28;45418;-75
2022/08/18 09:33:39;;;;;;;;;2.33;2.33;;;;;18.47;73.64;100514.75;5077605;28;45343;-73
2022/08/18 09:36:20;;;;;;;;;17.33;16.00;;;;;18.50;74.26;100509.44;5077047;27;45503;-73
2022/08/18 09:41:57;;;;;;;;;5.33;4.67;;;;;18.79;73.05;100509.34;5076246;28;45571;-73
2022/08/18 09:44:44;;;;;;;;;3.00;3.00;;;;;18.85;72.78;100508.47;5072134;28;45481;-75
2022/08/18 09:47:20;;;;;;;;;2.67;2.33;;;;;18.84;72.52;100510.22;5074026;28;46456;-75
2022/08/18 09:50:15;;;;;;;;;2.33;2.33;;;;;18.83;72.92;100526.13;5073082;28;45785;-75
2022/08/18 09:52:43;;;;;;;;;2.67;2.67;;;;;18.87;73.37;100519.91;5073097;28;45516;-76
2022/08/18 09:55:15;;;;;;;;;1.00;0.67;;;;;18.93;73.33;100521.66;5070730;28;45567;-74
2022/08/18 09:57:41;;;;;;;;;2.00;1.00;;;;;18.78;72.10;100483.75;5074192;28;45502;-76
2022/08/18 10:00:10;;;;;;;;;2.00;1.67;;;;;19.12;72.37;100533.03;5056136;28;45292;-75
2022/08/18 10:02:36;;;;;;;;;2.00;2.00;;;;;19.19;71.88;100526.81;5057109;28;45549;-74
2022/08/18 10:05:20;;;;;;;;;3.00;2.00;;;;;19.28;71.62;100534.72;5073858;28;45438;-75
2022/08/18 10:08:04;;;;;;;;;1.67;1.00;;;;;19.15;71.89;100531.25;5074614;28;45521;-76
2022/08/18 10:10:48;;;;;;;;;3.00;2.00;;;;;19.21;72.26;100535.63;5066743;28;45465;-77
2022/08/18 10:13:39;;;;;;;;;3.67;2.00;;;;;19.22;72.48;100535.63;5054982;28;45306;-78
2022/08/18 10:16:51;;;;;;;;;3.00;2.00;;;;;19.17;72.89;100526.81;5064115;28;45398;-75
2022/08/18 10:19:47;;;;;;;;;10.00;8.00;;;;;19.14;72.52;100536.53;5070776;28;45609;-76
2022/08/18 10:22:42;;;;;;;;;6.00;6.00;;;;;19.06;72.74;100523.38;5014709;27;46002;-85
2022/08/18 10:25:12;;;;;;;;;1.00;1.00;;;;;19.03;72.69;100520.72;5031998;28;45890;-77
2022/08/18 10:27:44;;;;;;;;;1.00;1.00;;;;;18.98;73.10;100528.69;5032762;28;45457;-75
2022/08/18 10:30:31;;;;;;;;;0.67;0.67;;;;;18.95;73.09;100519.88;5047196;28;45547;-74
2022/08/18 10:32:58;;;;;;;;;2.00;2.00;;;;;19.16;73.35;100529.47;5032205;28;45781;-77
2022/08/18 10:35:32;;;;;;;;;1.33;1.00;;;;;19.45;73.23;100546.06;5030878;28;45728;-76
2022/08/18 10:38:08;;;;;;;;;1.00;1.00;;;;;19.60;72.72;100553.03;5033003;28;45606;-76
2022/08/18 10:40:35;;;;;;;;;1.33;1.33;;;;;19.64;72.92;100543.31;5034607;28;46143;-75
2022/08/18 10:43:18;;;;;;;;;3.33;2.00;;;;;19.64;73.04;100551.25;5031931;28;45767;-76
2022/08/18 10:45:47;;;;;;;;;2.33;1.67;;;;;19.59;72.86;100551.28;5030341;28;47111;-74
2022/08/18 10:48:29;;;;;;;;;4.00;4.00;;;;;19.46;73.63;100542.53;5029929;28;45535;-75
2022/08/18 10:51:17;;;;;;;;;1.67;1.67;;;;;19.64;73.16;100561.84;5025853;28;46098;-76
2022/08/18 10:54:09;;;;;;;;;3.00;3.00;;;;;19.74;73.75;100550.31;5029427;28;45395;-76
2022/08/18 10:57:06;;;;;;;;;3.33;2.33;;;;;20.05;72.42;100563.31;5029767;28;45635;-87
2022/08/18 10:59:53;;;;;;;;;6.00;5.00;;;;;20.39;72.04;100565.66;5031060;28;45553;-76
2022/08/18 11:02:52;;;;;;;;;2.67;1.67;;;;;20.33;70.85;100569.25;5033859;28;46137;-78
2022/08/18 11:05:24;;;;;;;;;2.67;2.00;;;;;20.25;71.30;100531.31;5029412;28;45332;-78
2022/08/18 11:07:56;;;;;;;;;4.00;3.00;;;;;20.39;71.06;100555.03;5032870;28;45505;-79
2022/08/18 11:10:49;;;;;;;;;1.67;1.00;;;;;20.34;70.68;100557.75;5066116;28;45559;-77
2022/08/18 11:13:35;;;;;;;;;1.67;1.00;;;;;20.45;70.72;100565.59;5038373;28;45532;-81
2022/08/18 11:16:12;;;;;;;;;1.00;1.00;;;;;20.48;70.56;100565.56;5034239;28;45585;-77
2022/08/18 11:18:50;;;;;;;;;1.00;1.00;;;;;20.49;70.16;100555.81;5023421;28;45510;-77
2022/08/18 11:21:22;;;;;;;;;1.00;1.00;;;;;20.77;70.19;100557.31;5030271;28;45390;-78
2022/08/18 11:24:24;;;;;;;;;2.67;1.00;;;;;20.95;69.06;100550.00;5031649;28;45520;-78
2022/08/18 11:26:53;;;;;;;;;1.00;1.00;;;;;20.85;69.11;100567.84;5021617;28;45552;-79
2022/08/18 11:29:28;;;;;;;;;4.00;4.00;;;;;20.68;68.98;100568.03;5028413;28;45249;-79
2022/08/18 11:32:11;;;;;;;;;2.00;2.00;;;;;20.56;69.20;100557.53;5043341;28;45466;-78
2022/08/18 11:34:42;;;;;;;;;1.33;1.33;;;;;20.43;68.83;100543.50;5029672;28;46217;-78
2022/08/18 11:37:21;;;;;;;;;4.00;3.00;;;;;20.33;68.73;100544.50;5031337;28;45501;-77
2022/08/18 11:39:49;;;;;;;;;2.00;2.00;;;;;20.45;69.28;100557.63;5027004;28;45540;-79
2022/08/18 11:42:18;;;;;;;;;3.00;2.00;;;;;20.57;68.82;100575.19;5032688;28;45480;-79
2022/08/18 11:44:45;;;;;;;;;1.00;1.00;;;;;20.25;68.91;100502.13;5038166;28;45658;-79
2022/08/18 11:47:17;;;;;;;;;2.00;2.00;;;;;20.59;69.11;100571.69;5027286;28;45536;-79
2022/08/18 11:49:57;;;;;;;;;5.00;4.00;;;;;20.59;68.97;100568.13;5030847;28;45434;-78
2022/08/18 11:52:26;;;;;;;;;7.67;5.67;;;;;20.42;69.19;100565.63;5029361;28;45343;-78
2022/08/18 11:55:04;;;;;;;;;1.00;1.00;;;;;20.38;69.57;100579.84;5034953;28;45553;-79
2022/08/18 11:57:55;;;;;;;;;2.00;2.00;;;;;20.26;69.89;100576.38;5026252;28;45423;-78
2022/08/18 12:00:46;;;;;;;;;2.00;2.00;;;;;20.45;69.85;100602.72;5032799;28;45501;-77
2022/08/18 12:03:18;;;;;;;;;3.67;3.33;;;;;20.60;68.90;100596.44;5036904;28;46038;-78
2022/08/18 12:05:54;;;;;;;;;1.00;1.00;;;;;20.70;68.84;100586.59;5029265;28;46162;-78
2022/08/18 12:08:35;;;;;;;;;0.33;0.33;;;;;20.91;68.75;100590.78;5031378;28;45546;-78
2022/08/18 12:11:21;;;;;;;;;1.67;1.00;;;;;21.12;68.31;100574.56;5068308;28;45441;-78
2022/08/18 12:13:58;;;;;;;;;2.00;1.00;;;;;21.34;67.44;100596.44;5031016;28;45536;-78
2022/08/18 12:16:36;;;;;;;;;3.00;2.00;;;;;21.06;67.42;100586.16;5031634;28;45599;-78
2022/08/18 12:19:03;;;;;;;;;2.67;2.67;;;;;20.92;67.70;100588.09;5029215;28;45625;-77